createdAt,value
2017-08-15T05:31:42.268Z,1952
2017-08-15T05:32:07.475Z,1956
2017-08-15T05:32:32.898Z,1992
2017-08-15T05:32:58.360Z,2052
2017-08-15T05:33:23.857Z,2092
2017-08-15T05:33:49.296Z,2116
2017-08-15T05:34:14.763Z,2124
2017-08-15T05:34:40.200Z,2128
2017-08-15T05:35:05.648Z,2128
2017-08-15T05:35:31.145Z,2136
2017-08-15T05:35:56.621Z,2140
2017-08-15T05:36:22.077Z,2140
2017-08-15T05:36:47.557Z,2140
2017-08-15T05:37:12.994Z,2148
2017-08-15T05:37:38.456Z,2156
2017-08-15T05:38:03.923Z,2172
2017-08-15T05:38:29.395Z,2176
2017-08-15T05:38:54.822Z,2176
2017-08-15T05:39:20.274Z,2180
2017-08-15T05:39:45.786Z,2180
2017-08-15T05:40:11.294Z,2184
2017-08-15T05:40:36.769Z,2200
2017-08-15T05:41:03.069Z,2184
2017-08-15T05:41:28.518Z,2160
2017-08-15T05:41:53.960Z,2164
2017-08-15T05:42:19.466Z,2216
2017-08-15T05:42:44.894Z,2232
2017-08-15T05:43:10.343Z,2236
2017-08-15T05:43:35.785Z,2236
2017-08-15T05:44:01.246Z,2244
2017-08-15T05:44:26.697Z,2244
2017-08-15T05:44:52.175Z,2240
2017-08-15T05:45:17.622Z,2248
2017-08-15T05:45:43.082Z,2260
2017-08-15T05:46:08.557Z,2268
2017-08-15T05:46:34.003Z,2280
2017-08-15T05:46:59.444Z,2292
2017-08-15T05:47:24.928Z,2304
2017-08-15T05:47:50.379Z,2316
2017-08-15T05:48:15.813Z,2316
2017-08-15T05:48:41.268Z,2320
2017-08-15T05:49:06.732Z,2340
2017-08-15T05:49:32.181Z,2348
2017-08-15T05:49:57.663Z,2352
2017-08-15T05:50:23.123Z,2364
2017-08-15T05:50:48.629Z,2372
2017-08-15T05:51:14.088Z,2380
2017-08-15T05:51:39.551Z,2400
2017-08-15T05:52:04.986Z,2420
2017-08-15T05:52:30.440Z,2432
2017-08-15T05:52:55.927Z,2452
2017-08-15T05:53:21.359Z,2460
2017-08-15T05:53:46.864Z,2480
2017-08-15T05:54:12.254Z,2488
2017-08-15T05:54:37.683Z,2500
2017-08-15T05:55:03.128Z,2520
2017-08-15T05:55:28.620Z,2524
2017-08-15T05:55:54.069Z,2528
2017-08-15T05:56:19.555Z,2536
2017-08-15T05:56:45.006Z,2540
2017-08-15T05:57:10.442Z,2552
2017-08-15T05:57:35.916Z,2568
2017-08-15T05:58:01.383Z,2576
2017-08-15T05:58:26.816Z,2596
2017-08-15T05:58:52.297Z,2616
2017-08-15T05:59:17.758Z,2636
2017-08-15T05:59:43.223Z,2652
2017-08-15T06:00:08.697Z,2664
2017-08-15T06:00:34.201Z,2680
2017-08-15T06:00:59.666Z,2696
2017-08-15T06:01:25.138Z,2708
2017-08-15T06:01:50.586Z,2724
2017-08-15T06:02:16.077Z,2736
2017-08-15T06:02:41.506Z,2752
2017-08-15T06:03:07.151Z,2768
2017-08-15T06:03:32.918Z,2780
2017-08-15T06:03:58.376Z,2788
2017-08-15T06:04:23.865Z,2812
2017-08-15T06:04:49.299Z,2816
2017-08-15T06:05:14.832Z,2820
2017-08-15T06:05:40.277Z,2832
2017-08-15T06:06:05.757Z,2840
2017-08-15T06:06:31.207Z,2860
2017-08-15T06:06:56.673Z,2880
2017-08-15T06:07:22.146Z,2892
2017-08-15T06:07:47.571Z,2908
2017-08-15T06:08:13.044Z,2920
2017-08-15T06:08:38.486Z,2936
2017-08-15T06:09:03.954Z,2952
2017-08-15T06:09:29.430Z,2964
2017-08-15T06:09:54.916Z,2988
2017-08-15T06:10:20.320Z,3008
2017-08-15T06:10:45.763Z,3024
2017-08-15T06:11:11.260Z,3052
2017-08-15T06:11:36.742Z,3088
2017-08-15T06:12:02.179Z,3132
2017-08-15T06:12:27.615Z,3188
2017-08-15T06:12:53.090Z,3256
2017-08-15T06:13:18.503Z,3348
2017-08-15T06:13:43.973Z,3436
2017-08-15T06:14:09.442Z,3540
2017-08-15T06:14:34.896Z,3652
2017-08-15T06:15:00.359Z,3752
2017-08-15T06:15:25.791Z,3880
2017-08-15T06:15:51.285Z,4032
2017-08-15T06:16:16.761Z,4180
2017-08-15T06:16:42.221Z,4340
2017-08-15T06:17:07.716Z,4528
2017-08-15T06:17:33.194Z,4700
2017-08-15T06:17:58.651Z,4900
2017-08-15T06:18:24.091Z,5120
2017-08-15T06:18:49.592Z,5696
2017-08-15T06:19:15.060Z,7312
2017-08-15T06:19:40.516Z,9464
2017-08-15T06:20:05.981Z,11668
2017-08-15T06:20:31.447Z,13824
2017-08-15T06:20:56.942Z,15808
2017-08-15T06:21:22.438Z,16192
2017-08-15T06:21:47.866Z,15584
2017-08-15T06:22:13.342Z,17312
2017-08-15T06:22:38.836Z,17408
2017-08-15T06:23:04.313Z,17888
2017-08-15T06:23:29.761Z,18016
2017-08-15T06:23:55.223Z,17024
2017-08-15T06:24:20.689Z,16192
2017-08-15T06:24:46.116Z,16160
2017-08-15T06:25:11.604Z,16256
2017-08-15T06:25:37.036Z,17632
2017-08-15T06:26:02.548Z,15904
2017-08-15T06:26:27.963Z,16288
2017-08-15T06:26:53.418Z,16288
2017-08-15T06:27:18.888Z,14344
2017-08-15T06:27:44.322Z,13576
2017-08-15T06:28:09.803Z,13688
2017-08-15T06:28:35.237Z,10868
2017-08-15T06:29:00.712Z,8300
2017-08-15T06:29:26.208Z,6120
2017-08-15T06:29:51.712Z,4564
2017-08-15T06:30:17.187Z,3968
2017-08-15T06:30:42.711Z,3940
2017-08-15T06:31:08.177Z,3800
2017-08-15T06:31:33.665Z,3456
2017-08-15T06:31:59.106Z,3312
2017-08-15T06:32:24.707Z,3300
2017-08-15T06:32:50.118Z,3296
2017-08-15T06:33:15.578Z,3188
2017-08-15T06:33:41.093Z,3124
2017-08-15T06:34:06.525Z,3108
2017-08-15T06:34:32.029Z,3004
2017-08-15T06:34:57.455Z,3024
2017-08-15T06:35:22.902Z,3020
2017-08-15T06:35:48.397Z,3036
2017-08-15T06:36:13.863Z,3040
2017-08-15T06:36:39.356Z,3020
2017-08-15T06:37:04.796Z,3036
2017-08-15T06:37:30.242Z,3036
2017-08-15T06:37:55.730Z,3060
2017-08-15T06:38:21.179Z,2860
2017-08-15T06:38:46.639Z,2832
2017-08-15T06:39:12.107Z,2840
2017-08-15T06:39:37.570Z,2944
2017-08-15T06:40:03.047Z,2976
2017-08-15T06:40:28.532Z,3388
2017-08-15T06:40:54.002Z,3496
2017-08-15T06:41:19.483Z,3544
2017-08-15T06:41:44.931Z,3552
2017-08-15T06:42:10.412Z,3544
2017-08-15T06:42:35.898Z,3576
2017-08-15T06:43:01.390Z,3556
2017-08-15T06:43:26.827Z,3568
2017-08-15T06:43:52.315Z,3716
2017-08-15T06:44:17.786Z,3676
2017-08-15T06:44:43.258Z,3684
2017-08-15T06:45:08.691Z,3528
2017-08-15T06:45:34.160Z,3704
2017-08-15T06:45:59.607Z,3648
2017-08-15T06:46:25.065Z,3588
2017-08-15T06:46:50.529Z,3504
2017-08-15T06:47:15.970Z,3412
2017-08-15T06:47:41.482Z,3472
2017-08-15T06:48:06.987Z,2984
2017-08-15T06:48:32.452Z,2700
2017-08-15T06:48:58.011Z,2764
2017-08-15T06:49:23.493Z,2752
2017-08-15T06:49:48.950Z,2872
2017-08-15T06:50:14.440Z,2892
2017-08-15T06:50:39.928Z,2940
2017-08-15T06:51:05.432Z,2824
2017-08-15T06:51:30.865Z,2788
2017-08-15T06:51:56.357Z,2740
2017-08-15T06:52:21.859Z,2596
2017-08-15T06:52:47.324Z,2544
2017-08-15T06:53:12.743Z,2388
2017-08-15T06:53:38.220Z,2616
2017-08-15T06:54:03.646Z,2756
2017-08-15T06:54:29.125Z,2952
2017-08-15T06:54:54.592Z,3044
2017-08-15T06:55:20.023Z,3168
2017-08-15T06:55:45.468Z,3260
2017-08-15T06:56:10.946Z,3280
2017-08-15T06:56:36.406Z,3328
2017-08-15T06:57:01.880Z,3424
2017-08-15T06:57:27.369Z,3660
2017-08-15T06:57:52.795Z,3768
2017-08-15T06:58:18.252Z,3812
2017-08-15T06:58:43.726Z,4004
2017-08-15T06:59:09.195Z,4156
2017-08-15T06:59:34.685Z,4476
2017-08-15T07:00:00.108Z,4740
2017-08-15T07:00:25.615Z,5104
2017-08-15T07:00:51.076Z,5528
2017-08-15T07:01:16.552Z,5888
2017-08-15T07:01:42.012Z,6148
2017-08-15T07:02:07.551Z,6392
2017-08-15T07:02:32.970Z,6588
2017-08-15T07:02:58.462Z,6624
2017-08-15T07:03:23.886Z,6748
2017-08-15T07:03:49.386Z,6764
2017-08-15T07:04:14.804Z,6784
2017-08-15T07:04:40.281Z,6772
2017-08-15T07:05:05.754Z,6840
2017-08-15T07:05:31.220Z,6832
2017-08-15T07:05:56.678Z,6856
2017-08-15T07:06:22.137Z,6748
2017-08-15T07:06:47.617Z,6644
2017-08-15T07:07:13.055Z,6596
2017-08-15T07:07:38.561Z,6516
2017-08-15T07:08:04.023Z,6444
2017-08-15T07:08:29.503Z,6644
2017-08-15T07:08:54.993Z,6808
2017-08-15T07:09:20.435Z,6844
2017-08-15T07:09:45.903Z,6872
2017-08-15T07:10:11.376Z,6464
2017-08-15T07:10:36.810Z,6456
2017-08-15T07:11:02.290Z,6916
2017-08-15T07:11:27.737Z,7008
2017-08-15T07:11:53.191Z,6768
2017-08-15T07:12:18.654Z,6884
2017-08-15T07:12:44.183Z,6944
2017-08-15T07:13:09.641Z,6632
2017-08-15T07:13:35.096Z,6292
2017-08-15T07:14:00.577Z,6068
2017-08-15T07:14:26.004Z,5880
2017-08-15T07:14:51.461Z,5276
2017-08-15T07:15:16.950Z,5296
2017-08-15T07:15:42.365Z,5052
2017-08-15T07:16:07.853Z,5272
2017-08-15T07:16:33.295Z,5312
2017-08-15T07:16:58.755Z,5388
2017-08-15T07:17:24.229Z,5392
2017-08-15T07:17:49.690Z,5600
2017-08-15T07:18:15.152Z,5748
2017-08-15T07:18:40.594Z,5800
2017-08-15T07:19:06.043Z,5952
2017-08-15T07:19:31.517Z,5948
2017-08-15T07:19:56.965Z,5496
2017-08-15T07:20:22.445Z,4416
2017-08-15T07:20:47.878Z,4232
2017-08-15T07:21:13.386Z,3964
2017-08-15T07:21:38.828Z,3796
2017-08-15T07:22:04.299Z,3640
2017-08-15T07:22:29.836Z,3524
2017-08-15T07:22:55.300Z,3540
2017-08-15T07:23:20.736Z,3620
2017-08-15T07:23:46.232Z,3752
2017-08-15T07:24:11.705Z,3860
2017-08-15T07:24:37.185Z,4464
2017-08-15T07:25:02.629Z,4080
2017-08-15T07:25:28.098Z,4056
2017-08-15T07:25:53.555Z,4048
2017-08-15T07:26:19.008Z,3976
2017-08-15T07:26:44.477Z,3876
2017-08-15T07:27:09.924Z,3820
2017-08-15T07:27:35.406Z,3784
2017-08-15T07:28:00.850Z,3792
2017-08-15T07:28:26.339Z,3828
2017-08-15T07:28:51.780Z,4060
2017-08-15T07:29:17.242Z,3828
2017-08-15T07:29:42.688Z,3700
2017-08-15T07:30:08.157Z,3644
2017-08-15T07:30:33.643Z,3940
2017-08-15T07:30:59.092Z,3932
2017-08-15T07:31:24.556Z,3608
2017-08-15T07:31:50.054Z,3436
2017-08-15T07:32:15.481Z,3332
2017-08-15T07:32:40.985Z,3404
2017-08-15T07:33:06.449Z,3212
2017-08-15T07:33:31.915Z,3612
2017-08-15T07:33:57.407Z,3244
2017-08-15T07:34:22.878Z,3360
2017-08-15T07:34:48.412Z,3304
2017-08-15T07:35:13.851Z,3384
2017-08-15T07:35:39.336Z,3616
2017-08-15T07:36:04.818Z,4112
2017-08-15T07:36:30.235Z,4264
2017-08-15T07:36:55.689Z,4112
2017-08-15T07:37:21.119Z,4204
2017-08-15T07:37:46.616Z,4540
2017-08-15T07:38:12.061Z,4632
2017-08-15T07:38:37.558Z,5092
2017-08-15T07:39:03.024Z,5240
2017-08-15T07:39:28.491Z,5252
2017-08-15T07:39:53.955Z,5352
2017-08-15T07:40:19.391Z,5008
2017-08-15T07:40:44.840Z,4916
2017-08-15T07:41:10.286Z,5104
2017-08-15T07:41:35.755Z,5252
2017-08-15T07:42:01.232Z,5208
2017-08-15T07:42:26.739Z,5168
2017-08-15T07:42:52.110Z,5272
2017-08-15T07:43:17.576Z,5312
2017-08-15T07:43:43.013Z,5284
2017-08-15T07:44:08.439Z,5192
2017-08-15T07:44:33.930Z,5112
2017-08-15T07:44:59.411Z,4952
2017-08-15T07:45:24.849Z,5044
2017-08-15T07:45:50.292Z,5000
2017-08-15T07:46:15.736Z,4904
2017-08-15T07:46:41.220Z,4896
2017-08-15T07:47:06.663Z,5084
2017-08-15T07:47:32.133Z,5080
2017-08-15T07:47:57.612Z,5116
2017-08-15T07:48:23.066Z,5080
2017-08-15T07:48:48.498Z,5076
2017-08-15T07:49:13.975Z,5060
2017-08-15T07:49:39.424Z,4928
2017-08-15T07:50:04.879Z,5128
2017-08-15T07:50:30.333Z,5116
2017-08-15T07:50:55.782Z,5204
2017-08-15T07:51:21.246Z,5272
2017-08-15T07:51:46.716Z,5316
2017-08-15T07:52:12.179Z,5380
2017-08-15T07:52:37.626Z,5392
2017-08-15T07:53:03.111Z,5372
2017-08-15T07:53:28.579Z,5332
2017-08-15T07:53:54.041Z,5276
2017-08-15T07:54:19.543Z,5248
2017-08-15T07:54:44.995Z,5244
2017-08-15T07:55:10.418Z,5280
2017-08-15T07:56:24.252Z,5404
2017-08-15T07:56:49.727Z,5504
2017-08-15T07:57:15.214Z,5544
2017-08-15T07:57:40.653Z,5612
2017-08-15T07:58:06.164Z,5736
2017-08-15T07:58:31.606Z,5792
2017-08-15T07:58:57.022Z,5904
2017-08-15T07:59:22.480Z,5956
2017-08-15T07:59:47.944Z,6048
2017-08-15T08:00:13.414Z,6068
2017-08-15T08:00:38.880Z,6120
2017-08-15T08:01:04.339Z,6208
2017-08-15T08:01:29.807Z,6192
2017-08-15T08:01:55.277Z,6168
2017-08-15T08:02:20.746Z,6124
2017-08-15T08:02:46.199Z,6020
2017-08-15T08:03:11.685Z,5960
2017-08-15T08:03:37.155Z,5972
2017-08-15T08:04:02.600Z,5904
2017-08-15T08:04:28.057Z,5932
2017-08-15T08:04:53.519Z,5908
2017-08-15T08:05:19.011Z,5924
2017-08-15T08:05:44.439Z,5996
2017-08-15T08:06:09.987Z,6080
2017-08-15T08:06:35.462Z,6148
2017-08-15T08:07:00.947Z,6208
2017-08-15T08:07:26.466Z,6196
2017-08-15T08:07:51.943Z,6232
2017-08-15T08:08:17.445Z,6128
2017-08-15T08:08:42.889Z,5988
2017-08-15T08:09:08.378Z,5960
2017-08-15T08:09:33.776Z,5940
2017-08-15T08:09:59.272Z,5908
2017-08-15T08:10:24.707Z,5876
2017-08-15T08:10:50.176Z,5812
2017-08-15T08:11:15.644Z,5784
2017-08-15T08:11:41.121Z,5756
2017-08-15T08:12:06.562Z,5784
2017-08-15T08:12:32.079Z,5836
2017-08-15T08:12:57.492Z,5772
2017-08-15T08:13:22.944Z,5796
2017-08-15T08:13:48.371Z,5816
2017-08-15T08:14:13.895Z,5756
2017-08-15T08:14:39.419Z,5732
2017-08-15T08:15:04.902Z,5756
2017-08-15T08:15:30.326Z,5788
2017-08-15T08:15:55.820Z,5724
2017-08-15T08:16:21.265Z,5748
2017-08-15T08:16:46.728Z,5948
2017-08-15T08:17:12.191Z,5876
2017-08-15T08:17:37.706Z,5836
2017-08-15T08:18:03.173Z,5760
2017-08-15T08:18:28.627Z,5728
2017-08-15T08:18:54.105Z,5740
2017-08-15T08:19:19.568Z,5696
2017-08-15T08:19:44.999Z,5760
2017-08-15T08:20:10.458Z,5752
2017-08-15T08:20:35.906Z,5772
2017-08-15T08:21:01.364Z,5856
2017-08-15T08:21:26.814Z,5764
2017-08-15T08:21:52.332Z,5884
2017-08-15T08:22:17.764Z,5928
2017-08-15T08:22:43.207Z,5952
2017-08-15T08:23:08.703Z,5884
2017-08-15T08:23:34.142Z,5748
2017-08-15T08:23:59.613Z,5740
2017-08-15T08:24:25.120Z,5836
2017-08-15T08:24:50.603Z,5812
2017-08-15T08:25:16.079Z,5816
2017-08-15T08:25:41.549Z,5876
2017-08-15T08:26:07.025Z,5916
2017-08-15T08:26:32.514Z,5904
2017-08-15T08:26:57.967Z,5856
2017-08-15T08:27:23.449Z,5868
2017-08-15T08:27:48.903Z,5860
2017-08-15T08:28:14.381Z,5812
2017-08-15T08:28:39.836Z,5840
2017-08-15T08:29:05.347Z,5836
2017-08-15T08:29:30.805Z,5852
2017-08-15T08:29:56.264Z,5936
2017-08-15T08:30:21.761Z,5948
2017-08-15T08:30:47.248Z,5916
2017-08-15T08:31:12.722Z,5888
2017-08-15T08:31:38.191Z,5872
2017-08-15T08:32:03.642Z,5868
2017-08-15T08:32:29.117Z,5912
2017-08-15T08:32:54.594Z,5900
2017-08-15T08:33:20.054Z,5832
2017-08-15T08:33:45.523Z,5788
2017-08-15T08:34:11.005Z,5756
2017-08-15T08:34:36.485Z,5772
2017-08-15T08:35:02.005Z,5676
2017-08-15T08:35:27.438Z,5680
2017-08-15T08:35:52.919Z,5676
2017-08-15T08:36:18.366Z,5768
2017-08-15T08:36:43.869Z,5664
2017-08-15T08:37:09.312Z,5660
2017-08-15T08:37:34.778Z,5608
2017-08-15T08:38:00.291Z,5636
2017-08-15T08:38:25.713Z,5644
2017-08-15T08:38:51.197Z,5612
2017-08-15T08:39:16.668Z,5484
2017-08-15T08:39:42.127Z,5408
2017-08-15T08:40:07.642Z,5440
2017-08-15T08:40:33.061Z,5348
2017-08-15T08:40:58.514Z,5252
2017-08-15T08:41:24.018Z,5328
2017-08-15T08:41:49.458Z,5412
2017-08-15T08:42:14.975Z,5368
2017-08-15T08:42:40.450Z,5392
2017-08-15T08:43:05.947Z,5404
2017-08-15T08:43:31.426Z,5432
2017-08-15T08:43:56.879Z,5436
2017-08-15T08:44:22.367Z,5404
2017-08-15T08:44:47.802Z,5344
2017-08-15T08:45:13.341Z,5348
2017-08-15T08:45:38.814Z,5360
2017-08-15T08:46:04.300Z,5488
2017-08-15T08:46:29.703Z,5616
2017-08-15T08:46:55.210Z,5760
2017-08-15T08:47:20.706Z,5924
2017-08-15T08:47:46.200Z,6120
2017-08-15T08:48:11.700Z,6364
2017-08-15T08:48:37.143Z,6600
2017-08-15T08:49:02.600Z,6668
2017-08-15T08:49:28.066Z,6768
2017-08-15T08:49:53.581Z,6848
2017-08-15T08:50:19.070Z,6976
2017-08-15T08:50:44.497Z,7124
2017-08-15T08:51:09.985Z,7268
2017-08-15T08:51:35.486Z,7432
2017-08-15T08:52:00.925Z,7468
2017-08-15T08:52:26.404Z,7520
2017-08-15T08:52:51.914Z,7532
2017-08-15T08:53:17.367Z,7548
2017-08-15T08:53:42.867Z,7528
2017-08-15T08:54:08.338Z,7532
2017-08-15T08:54:33.761Z,7544
2017-08-15T08:54:59.257Z,7576
2017-08-15T08:55:24.762Z,7628
2017-08-15T08:55:50.219Z,7608
2017-08-15T08:56:15.659Z,7592
2017-08-15T08:56:41.111Z,7564
2017-08-15T08:57:06.592Z,7536
2017-08-15T08:57:32.076Z,7500
2017-08-15T08:57:57.564Z,7460
2017-08-15T08:58:23.026Z,7400
2017-08-15T08:58:48.465Z,7340
2017-08-15T08:59:13.973Z,7264
2017-08-15T08:59:39.479Z,7184
2017-08-15T09:00:04.947Z,7132
2017-08-15T09:00:30.369Z,7060
2017-08-15T09:00:55.852Z,7004
2017-08-15T09:01:21.310Z,6968
2017-08-15T09:01:46.764Z,6928
2017-08-15T09:02:12.225Z,6888
2017-08-15T09:02:37.709Z,6852
2017-08-15T09:03:03.122Z,6812
2017-08-15T09:03:28.654Z,6768
2017-08-15T09:03:54.147Z,6720
2017-08-15T09:04:19.589Z,6676
2017-08-15T09:04:45.016Z,6620
2017-08-15T09:05:10.498Z,6572
2017-08-15T09:05:35.986Z,6548
2017-08-15T09:06:01.519Z,6516
2017-08-15T09:06:26.970Z,6480
2017-08-15T09:06:52.423Z,6456
2017-08-15T09:07:17.913Z,6444
2017-08-15T09:07:43.395Z,6428
2017-08-15T09:08:08.909Z,6432
2017-08-15T09:08:34.379Z,6448
2017-08-15T09:08:59.859Z,6476
2017-08-15T09:09:25.281Z,6540
2017-08-15T09:09:50.722Z,6632
2017-08-15T09:10:16.177Z,6708
2017-08-15T09:10:41.653Z,6824
2017-08-15T09:11:07.108Z,6960
2017-08-15T09:11:32.605Z,7084
2017-08-15T09:11:58.086Z,7184
2017-08-15T09:12:23.553Z,7296
2017-08-15T09:12:49.027Z,7416
2017-08-15T09:13:14.453Z,7512
2017-08-15T09:13:39.953Z,7628
2017-08-15T09:14:05.427Z,7720
2017-08-15T09:14:30.859Z,7780
2017-08-15T09:14:56.319Z,7840
2017-08-15T09:15:21.809Z,7888
2017-08-15T09:15:47.261Z,7932
2017-08-15T09:16:12.698Z,7952
2017-08-15T09:16:38.169Z,7996
2017-08-15T09:17:03.652Z,7992
2017-08-15T09:17:29.156Z,7980
2017-08-15T09:17:54.617Z,7972
2017-08-15T09:18:20.097Z,7992
2017-08-15T09:18:45.565Z,7972
2017-08-15T09:19:11.002Z,7948
2017-08-15T09:19:36.466Z,7944
2017-08-15T09:20:01.926Z,7932
2017-08-15T09:20:27.383Z,7952
2017-08-15T09:20:52.835Z,7956
2017-08-15T09:21:18.273Z,7956
2017-08-15T09:21:43.739Z,7940
2017-08-15T09:22:09.194Z,7956
2017-08-15T09:22:34.677Z,7956
2017-08-15T09:23:00.180Z,7940
2017-08-15T09:23:25.617Z,7944
2017-08-15T09:23:51.096Z,7964
2017-08-15T09:24:16.571Z,7992
2017-08-15T09:24:41.985Z,7992
2017-08-15T09:25:07.456Z,8004
2017-08-15T09:25:33.084Z,8000
2017-08-15T09:25:58.559Z,8004
2017-08-15T09:26:24.045Z,8008
2017-08-15T09:26:49.474Z,8056
2017-08-15T09:27:14.950Z,8068
2017-08-15T09:27:40.438Z,8060
2017-08-15T09:28:05.873Z,8072
2017-08-15T09:28:31.340Z,8080
2017-08-15T09:28:56.825Z,8064
2017-08-15T09:29:22.300Z,8072
2017-08-15T09:29:47.775Z,8064
2017-08-15T09:30:13.225Z,8064
2017-08-15T09:30:38.673Z,8052
2017-08-15T09:31:04.121Z,8040
2017-08-15T09:31:29.626Z,8036
2017-08-15T09:31:55.103Z,8024
2017-08-15T09:32:20.552Z,8008
2017-08-15T09:32:46.036Z,8000
2017-08-15T09:33:11.511Z,8004
2017-08-15T09:33:36.977Z,8000
2017-08-15T09:34:02.426Z,8004
2017-08-15T09:34:27.896Z,8012
2017-08-15T09:34:53.342Z,8016
2017-08-15T09:35:18.809Z,8016
2017-08-15T09:35:44.294Z,8032
2017-08-15T09:36:09.905Z,8036
2017-08-15T09:36:35.252Z,8032
2017-08-15T09:37:00.709Z,8016
2017-08-15T09:37:26.181Z,8008
2017-08-15T09:37:51.651Z,7992
2017-08-15T09:38:17.116Z,7988
2017-08-15T09:38:42.601Z,7980
2017-08-15T09:39:08.080Z,7968
2017-08-15T09:39:33.542Z,7952
2017-08-15T09:39:58.997Z,7936
2017-08-15T09:40:24.461Z,7932
2017-08-15T09:40:49.945Z,7924
2017-08-15T09:41:15.378Z,7920
2017-08-15T09:41:40.822Z,7908
2017-08-15T09:42:06.288Z,7896
2017-08-15T09:42:31.754Z,7896
2017-08-15T09:42:57.230Z,7892
2017-08-15T09:43:22.704Z,7904
2017-08-15T09:43:48.144Z,7908
2017-08-15T09:44:13.632Z,7904
2017-08-15T09:44:39.110Z,7912
2017-08-15T09:45:04.538Z,7944
2017-08-15T09:45:30.017Z,7948
2017-08-15T09:45:55.475Z,7956
2017-08-15T09:46:20.965Z,7968
2017-08-15T09:46:46.453Z,7992
2017-08-15T09:47:11.894Z,8012
2017-08-15T09:47:37.360Z,8032
2017-08-15T09:48:02.851Z,8060
2017-08-15T09:48:28.300Z,8076
2017-08-15T09:48:53.794Z,8080
2017-08-15T09:49:19.252Z,8092
2017-08-15T09:49:44.695Z,8104
2017-08-15T09:50:10.181Z,8120
2017-08-15T09:50:35.627Z,8140
2017-08-15T09:51:01.090Z,8164
2017-08-15T09:51:26.562Z,8192
2017-08-15T09:51:51.993Z,8236
2017-08-15T09:52:17.465Z,8272
2017-08-15T09:52:42.964Z,8316
2017-08-15T09:53:08.402Z,8352
2017-08-15T09:53:33.884Z,8380
2017-08-15T09:53:59.352Z,8412
2017-08-15T09:54:24.827Z,8428
2017-08-15T09:54:50.268Z,8444
2017-08-15T09:55:15.743Z,8452
2017-08-15T09:55:41.183Z,8444
2017-08-15T09:56:06.642Z,8440
2017-08-15T09:56:32.134Z,8432
2017-08-15T09:56:57.595Z,8424
2017-08-15T09:57:23.037Z,8428
2017-08-15T09:57:48.495Z,8428
2017-08-15T09:58:13.942Z,8432
2017-08-15T09:58:39.406Z,8452
2017-08-15T09:59:04.883Z,8464
2017-08-15T09:59:30.326Z,8480
2017-08-15T09:59:55.778Z,8484
2017-08-15T10:00:21.235Z,8480
2017-08-15T10:00:46.706Z,8472
2017-08-15T10:01:12.150Z,8456
2017-08-15T10:01:37.630Z,8436
2017-08-15T10:02:03.082Z,8428
2017-08-15T10:02:28.551Z,8416
2017-08-15T10:02:54.002Z,8408
2017-08-15T10:03:19.475Z,8404
2017-08-15T10:03:44.943Z,8396
2017-08-15T10:04:10.395Z,8396
2017-08-15T10:04:35.893Z,8396
2017-08-15T10:05:01.307Z,8392
2017-08-15T10:05:26.816Z,8396
2017-08-15T10:05:52.265Z,8396
2017-08-15T10:06:17.685Z,8400
2017-08-15T10:06:43.146Z,8400
2017-08-15T10:07:08.606Z,8392
2017-08-15T10:07:34.102Z,8396
2017-08-15T10:07:59.572Z,8388
2017-08-15T10:08:25.080Z,8384
2017-08-15T10:08:50.528Z,8372
2017-08-15T10:09:15.945Z,8360
2017-08-15T10:09:41.401Z,8336
2017-08-15T10:10:06.847Z,8312
2017-08-15T10:10:32.336Z,8288
2017-08-15T10:10:57.830Z,8264
2017-08-15T10:11:23.261Z,8240
2017-08-15T10:11:48.750Z,8220
2017-08-15T10:12:14.226Z,8200
2017-08-15T10:12:39.662Z,8180
2017-08-15T10:13:05.132Z,8164
2017-08-15T10:13:30.603Z,8156
2017-08-15T10:13:56.022Z,8140
2017-08-15T10:14:21.478Z,8152
2017-08-15T10:14:46.912Z,8160
2017-08-15T10:15:12.460Z,8168
2017-08-15T10:15:37.869Z,8180
2017-08-15T10:16:03.318Z,8192
2017-08-15T10:16:28.780Z,8204
2017-08-15T10:16:54.302Z,8216
2017-08-15T10:17:19.815Z,8228
2017-08-15T10:17:45.281Z,8244
2017-08-15T10:18:10.738Z,8252
2017-08-15T10:18:36.185Z,8252
2017-08-15T10:19:01.684Z,8252
2017-08-15T10:19:27.186Z,8240
2017-08-15T10:19:52.674Z,8236
2017-08-15T10:20:18.103Z,8228
2017-08-15T10:20:43.577Z,8228
2017-08-15T10:21:09.027Z,8216
2017-08-15T10:21:34.513Z,8208
2017-08-15T10:22:00.009Z,8196
2017-08-15T10:22:25.428Z,8188
2017-08-15T10:22:50.926Z,8184
2017-08-15T10:23:16.375Z,8176
2017-08-15T10:23:41.850Z,8172
2017-08-15T10:24:07.348Z,8176
2017-08-15T10:24:32.805Z,8188
2017-08-15T10:24:58.307Z,8204
2017-08-15T10:25:23.739Z,8220
2017-08-15T10:25:49.196Z,8232
2017-08-15T10:26:14.624Z,8240
2017-08-15T10:26:40.116Z,8244
2017-08-15T10:27:05.538Z,8252
2017-08-15T10:27:30.989Z,8256
2017-08-15T10:27:56.461Z,8244
2017-08-15T10:28:22.006Z,8232
2017-08-15T10:28:47.440Z,8204
2017-08-15T10:29:12.872Z,8164
2017-08-15T10:29:38.384Z,8116
2017-08-15T10:30:03.796Z,8064
2017-08-15T10:30:29.260Z,8016
2017-08-15T10:30:54.692Z,7972
2017-08-15T10:31:20.153Z,7944
2017-08-15T10:31:45.632Z,7916
2017-08-15T10:32:11.092Z,7892
2017-08-15T10:32:36.583Z,7872
2017-08-15T10:33:02.012Z,7836
2017-08-15T10:33:27.489Z,7792
2017-08-15T10:33:52.961Z,7732
2017-08-15T10:34:18.422Z,7672
2017-08-15T10:34:43.894Z,7620
2017-08-15T10:35:09.355Z,7580
2017-08-15T10:35:34.804Z,7548
2017-08-15T10:36:00.266Z,7540
2017-08-15T10:36:25.735Z,7560
2017-08-15T10:36:51.180Z,7588
2017-08-15T10:37:16.669Z,7624
2017-08-15T10:37:42.109Z,7656
2017-08-15T10:38:07.569Z,7688
2017-08-15T10:38:33.083Z,7700
2017-08-15T10:38:58.480Z,7680
2017-08-15T10:39:23.952Z,7624
2017-08-15T10:39:49.417Z,7520
2017-08-15T10:40:14.909Z,7356
2017-08-15T10:40:40.324Z,7132
2017-08-15T10:41:05.831Z,6884
2017-08-15T10:41:31.276Z,6628
2017-08-15T10:41:56.739Z,6396
2017-08-15T10:42:22.202Z,6172
2017-08-15T10:42:47.683Z,5988
2017-08-15T10:43:13.150Z,5864
2017-08-15T10:43:38.666Z,5776
2017-08-15T10:44:04.133Z,5696
2017-08-15T10:44:29.530Z,5624
2017-08-15T10:44:54.946Z,5556
2017-08-15T10:45:20.432Z,5496
2017-08-15T10:45:45.835Z,5432
2017-08-15T10:46:11.349Z,5340
2017-08-15T10:46:36.786Z,5248
2017-08-15T10:47:02.245Z,5152
2017-08-15T10:47:27.723Z,5056
2017-08-15T10:47:53.186Z,4960
2017-08-15T10:48:18.660Z,4848
2017-08-15T10:48:44.082Z,4724
2017-08-15T10:49:09.596Z,4600
2017-08-15T10:49:35.124Z,4472
2017-08-15T10:50:00.584Z,4336
2017-08-15T10:50:26.114Z,4204
2017-08-15T10:50:51.558Z,4092
2017-08-15T10:51:17.001Z,4008
2017-08-15T10:51:42.449Z,3936
2017-08-15T10:52:07.899Z,3884
2017-08-15T10:52:33.386Z,3844
2017-08-15T10:52:58.862Z,3828
2017-08-15T10:53:24.345Z,3816
2017-08-15T10:53:49.812Z,3812
2017-08-15T10:54:15.293Z,3848
2017-08-15T10:54:40.738Z,3880
2017-08-15T10:55:06.206Z,3904
2017-08-15T10:55:31.638Z,3940
2017-08-15T10:55:57.080Z,3976
2017-08-15T10:56:22.567Z,4008
2017-08-15T10:56:48.017Z,4072
2017-08-15T10:57:13.490Z,4180
2017-08-15T10:57:38.928Z,4340
2017-08-15T10:58:04.383Z,4528
2017-08-15T10:58:29.850Z,4756
2017-08-15T10:58:55.358Z,5032
2017-08-15T10:59:20.958Z,5380
2017-08-15T10:59:46.437Z,5680
2017-08-15T11:00:11.906Z,6016
2017-08-15T11:00:37.347Z,6344
2017-08-15T11:01:02.805Z,6648
2017-08-15T11:01:28.242Z,6960
2017-08-15T11:01:53.720Z,7360
2017-08-15T11:02:19.189Z,7616
2017-08-15T11:02:44.655Z,7852
2017-08-15T11:03:10.172Z,8060
2017-08-15T11:03:35.620Z,8208
2017-08-15T11:04:01.111Z,8308
2017-08-15T11:04:26.548Z,8340
2017-08-15T11:04:52.031Z,8380
2017-08-15T11:05:17.556Z,8420
2017-08-15T11:05:42.982Z,8424
2017-08-15T11:06:08.488Z,8416
2017-08-15T11:06:33.930Z,8440
2017-08-15T11:06:59.379Z,8508
2017-08-15T11:07:24.824Z,8608
2017-08-15T11:07:50.284Z,8676
2017-08-15T11:08:15.774Z,8772
2017-08-15T11:08:41.198Z,8888
2017-08-15T11:09:06.699Z,9000
2017-08-15T11:09:32.112Z,9092
2017-08-15T11:09:57.577Z,9176
2017-08-15T11:10:23.071Z,9228
2017-08-15T11:10:48.490Z,9256